sensor_id;sensor_type;location;lat;lon;timestamp;temperature;humidity
69823;SHT31;57119;52.516;13.508;2023-09-12T00:02:05;16.70;99.99
69823;SHT31;57119;52.516;13.508;2023-09-12T00:04:30;16.63;99.99
69823;SHT31;57119;52.516;13.508;2023-09-12T00:06:56;16.64;99.99
69823;SHT31;57119;52.516;13.508;2023-09-12T00:09:21;16.66;99.99
69823;SHT31;57119;52.516;13.508;2023-09-12T00:11:47;16.61;99.99
69823;SHT31;57119;52.516;13.508;2023-09-12T00:14:16;16.61;99.99
69823;SHT31;57119;52.516;13.508;2023-09-12T00:16:41;16.64;99.99
69823;SHT31;57119;52.516;13.508;2023-09-12T00:19:07;16.60;99.99
69823;SHT31;57119;52.516;13.508;2023-09-12T00:21:32;16.60;99.99
69823;SHT31;57119;52.516;13.508;2023-09-12T00:23:58;16.60;99.99
69823;SHT31;57119;52.516;13.508;2023-09-12T00:26:23;16.60;99.99
69823;SHT31;57119;52.516;13.508;2023-09-12T00:28:48;16.57;99.99
69823;SHT31;57119;52.516;13.508;2023-09-12T00:31:14;16.53;99.99
69823;SHT31;57119;52.516;13.508;2023-09-12T00:33:39;16.49;99.99
69823;SHT31;57119;52.516;13.508;2023-09-12T00:36:05;16.50;99.99
69823;SHT31;57119;52.516;13.508;2023-09-12T00:38:30;16.48;99.99
69823;SHT31;57119;52.516;13.508;2023-09-12T00:40:55;16.41;99.99
69823;SHT31;57119;52.516;13.508;2023-09-12T00:43:21;16.42;99.99
69823;SHT31;57119;52.516;13.508;2023-09-12T00:45:46;16.39;99.99
69823;SHT31;57119;52.516;13.508;2023-09-12T00:48:12;16.43;99.99
69823;SHT31;57119;52.516;13.508;2023-09-12T00:50:39;16.39;99.99
69823;SHT31;57119;52.516;13.508;2023-09-12T00:53:05;16.36;99.99
69823;SHT31;57119;52.516;13.508;2023-09-12T00:55:32;16.30;99.99
69823;SHT31;57119;52.516;13.508;2023-09-12T00:58:00;16.25;99.99
69823;SHT31;57119;52.516;13.508;2023-09-12T01:00:26;16.32;99.99
69823;SHT31;57119;52.516;13.508;2023-09-12T01:02:51;16.26;99.99
69823;SHT31;57119;52.516;13.508;2023-09-12T01:05:20;16.28;99.99
69823;SHT31;57119;52.516;13.508;2023-09-12T01:07:46;16.25;99.99
69823;SHT31;57119;52.516;13.508;2023-09-12T01:10:11;16.23;99.99
69823;SHT31;57119;52.516;13.508;2023-09-12T01:12:37;16.21;99.99
69823;SHT31;57119;52.516;13.508;2023-09-12T01:15:03;16.21;99.99
69823;SHT31;57119;52.516;13.508;2023-09-12T01:17:33;16.15;99.99
69823;SHT31;57119;52.516;13.508;2023-09-12T01:20:00;16.18;99.99
69823;SHT31;57119;52.516;13.508;2023-09-12T01:26:20;16.15;99.99
69823;SHT31;57119;52.516;13.508;2023-09-12T01:28:51;16.12;99.99
69823;SHT31;57119;52.516;13.508;2023-09-12T01:31:17;16.08;99.99
69823;SHT31;57119;52.516;13.508;2023-09-12T01:33:43;16.08;99.99
69823;SHT31;57119;52.516;13.508;2023-09-12T01:36:10;16.02;99.99
69823;SHT31;57119;52.516;13.508;2023-09-12T01:38:35;16.01;99.99
69823;SHT31;57119;52.516;13.508;2023-09-12T01:41:01;16.00;99.99
69823;SHT31;57119;52.516;13.508;2023-09-12T01:43:26;16.04;99.99
69823;SHT31;57119;52.516;13.508;2023-09-12T01:45:54;15.94;99.99
69823;SHT31;57119;52.516;13.508;2023-09-12T01:48:22;15.95;99.99
69823;SHT31;57119;52.516;13.508;2023-09-12T01:50:49;15.95;99.99
69823;SHT31;57119;52.516;13.508;2023-09-12T01:53:15;15.94;99.99
69823;SHT31;57119;52.516;13.508;2023-09-12T01:55:43;15.94;99.99
69823;SHT31;57119;52.516;13.508;2023-09-12T01:58:10;15.94;99.99
69823;SHT31;57119;52.516;13.508;2023-09-12T02:00:36;15.88;99.99
69823;SHT31;57119;52.516;13.508;2023-09-12T02:03:03;15.84;99.99
69823;SHT31;57119;52.516;13.508;2023-09-12T02:05:28;15.85;99.99
69823;SHT31;57119;52.516;13.508;2023-09-12T02:07:53;15.84;99.99
69823;SHT31;57119;52.516;13.508;2023-09-12T02:10:19;15.85;99.99
69823;SHT31;57119;52.516;13.508;2023-09-12T02:12:44;15.83;99.99
69823;SHT31;57119;52.516;13.508;2023-09-12T02:15:10;15.75;99.99
69823;SHT31;57119;52.516;13.508;2023-09-12T02:17:35;15.75;99.99
69823;SHT31;57119;52.516;13.508;2023-09-12T02:20:01;15.71;99.99
69823;SHT31;57119;52.516;13.508;2023-09-12T02:22:26;15.68;99.99
69823;SHT31;57119;52.516;13.508;2023-09-12T02:24:51;15.65;99.99
69823;SHT31;57119;52.516;13.508;2023-09-12T02:27:17;15.67;99.99
69823;SHT31;57119;52.516;13.508;2023-09-12T02:29:43;15.70;99.99
69823;SHT31;57119;52.516;13.508;2023-09-12T02:32:09;15.71;99.99
69823;SHT31;57119;52.516;13.508;2023-09-12T02:34:34;15.71;99.99
69823;SHT31;57119;52.516;13.508;2023-09-12T02:37:00;15.68;99.99
69823;SHT31;57119;52.516;13.508;2023-09-12T02:39:25;15.60;99.99
69823;SHT31;57119;52.516;13.508;2023-09-12T02:41:51;15.63;99.99
69823;SHT31;57119;52.516;13.508;2023-09-12T02:44:16;15.60;99.99
69823;SHT31;57119;52.516;13.508;2023-09-12T02:46:41;15.60;99.99
69823;SHT31;57119;52.516;13.508;2023-09-12T02:49:07;15.64;99.99
69823;SHT31;57119;52.516;13.508;2023-09-12T02:51:33;15.53;99.99
69823;SHT31;57119;52.516;13.508;2023-09-12T02:53:58;15.50;99.99
69823;SHT31;57119;52.516;13.508;2023-09-12T02:56:23;15.49;99.99
69823;SHT31;57119;52.516;13.508;2023-09-12T02:58:49;15.44;99.99
69823;SHT31;57119;52.516;13.508;2023-09-12T03:01:19;15.42;99.99
69823;SHT31;57119;52.516;13.508;2023-09-12T03:03:47;15.40;99.99
69823;SHT31;57119;52.516;13.508;2023-09-12T03:06:13;15.36;99.99
69823;SHT31;57119;52.516;13.508;2023-09-12T03:08:43;15.36;99.99
69823;SHT31;57119;52.516;13.508;2023-09-12T03:11:08;15.39;99.99
69823;SHT31;57119;52.516;13.508;2023-09-12T03:13:36;15.42;99.99
69823;SHT31;57119;52.516;13.508;2023-09-12T03:16:02;15.42;99.99
69823;SHT31;57119;52.516;13.508;2023-09-12T03:18:27;15.44;99.99
69823;SHT31;57119;52.516;13.508;2023-09-12T03:20:53;15.39;99.99
69823;SHT31;57119;52.516;13.508;2023-09-12T03:23:21;15.36;99.99
69823;SHT31;57119;52.516;13.508;2023-09-12T03:25:47;15.35;99.99
69823;SHT31;57119;52.516;13.508;2023-09-12T03:28:12;15.35;99.99
69823;SHT31;57119;52.516;13.508;2023-09-12T03:30:38;15.36;99.99
69823;SHT31;57119;52.516;13.508;2023-09-12T03:33:05;15.32;99.99
69823;SHT31;57119;52.516;13.508;2023-09-12T03:35:31;15.35;99.99
69823;SHT31;57119;52.516;13.508;2023-09-12T03:37:57;15.30;99.99
69823;SHT31;57119;52.516;13.508;2023-09-12T03:40:23;15.26;99.99
69823;SHT31;57119;52.516;13.508;2023-09-12T03:42:48;15.26;99.99
69823;SHT31;57119;52.516;13.508;2023-09-12T03:45:13;15.20;99.99
69823;SHT31;57119;52.516;13.508;2023-09-12T03:47:39;15.20;99.99
69823;SHT31;57119;52.516;13.508;2023-09-12T03:50:05;15.15;99.99
69823;SHT31;57119;52.516;13.508;2023-09-12T03:52:30;15.19;99.99
69823;SHT31;57119;52.516;13.508;2023-09-12T03:54:56;15.12;99.99
69823;SHT31;57119;52.516;13.508;2023-09-12T03:57:21;15.12;99.99
69823;SHT31;57119;52.516;13.508;2023-09-12T03:59:47;15.18;99.99
69823;SHT31;57119;52.516;13.508;2023-09-12T04:02:13;15.05;99.99
69823;SHT31;57119;52.516;13.508;2023-09-12T04:04:38;14.99;99.99
69823;SHT31;57119;52.516;13.508;2023-09-12T04:07:04;15.02;99.99
69823;SHT31;57119;52.516;13.508;2023-09-12T04:09:30;14.91;99.99
69823;SHT31;57119;52.516;13.508;2023-09-12T04:11:55;14.92;99.99
69823;SHT31;57119;52.516;13.508;2023-09-12T04:14:21;14.95;99.99
69823;SHT31;57119;52.516;13.508;2023-09-12T04:16:46;14.96;99.99
69823;SHT31;57119;52.516;13.508;2023-09-12T04:19:14;14.96;99.99
69823;SHT31;57119;52.516;13.508;2023-09-12T04:21:39;14.96;99.99
69823;SHT31;57119;52.516;13.508;2023-09-12T04:24:06;14.98;99.99
69823;SHT31;57119;52.516;13.508;2023-09-12T04:26:32;15.00;99.99
69823;SHT31;57119;52.516;13.508;2023-09-12T04:28:57;14.99;99.99
69823;SHT31;57119;52.516;13.508;2023-09-12T04:31:22;14.95;99.99
69823;SHT31;57119;52.516;13.508;2023-09-12T04:33:51;14.87;99.99
69823;SHT31;57119;52.516;13.508;2023-09-12T04:36:17;14.89;99.99
69823;SHT31;57119;52.516;13.508;2023-09-12T04:38:42;14.92;99.99
69823;SHT31;57119;52.516;13.508;2023-09-12T04:41:08;14.93;99.99
69823;SHT31;57119;52.516;13.508;2023-09-12T04:43:33;14.96;99.99
69823;SHT31;57119;52.516;13.508;2023-09-12T04:45:59;15.09;99.99
69823;SHT31;57119;52.516;13.508;2023-09-12T04:48:25;15.12;99.99
69823;SHT31;57119;52.516;13.508;2023-09-12T04:50:50;15.12;99.99
69823;SHT31;57119;52.516;13.508;2023-09-12T04:53:16;15.16;99.99
69823;SHT31;57119;52.516;13.508;2023-09-12T04:55:41;15.13;99.99
69823;SHT31;57119;52.516;13.508;2023-09-12T04:58:07;15.12;99.99
69823;SHT31;57119;52.516;13.508;2023-09-12T05:00:33;15.23;99.99
69823;SHT31;57119;52.516;13.508;2023-09-12T05:02:59;15.35;99.99
69823;SHT31;57119;52.516;13.508;2023-09-12T05:05:24;15.42;99.99
69823;SHT31;57119;52.516;13.508;2023-09-12T05:07:50;15.44;99.99
69823;SHT31;57119;52.516;13.508;2023-09-12T05:10:17;15.53;99.99
69823;SHT31;57119;52.516;13.508;2023-09-12T05:12:44;15.64;99.99
69823;SHT31;57119;52.516;13.508;2023-09-12T05:15:09;15.75;99.99
69823;SHT31;57119;52.516;13.508;2023-09-12T05:17:35;15.87;99.99
69823;SHT31;57119;52.516;13.508;2023-09-12T05:20:00;15.90;99.99
69823;SHT31;57119;52.516;13.508;2023-09-12T05:22:26;15.98;99.99
69823;SHT31;57119;52.516;13.508;2023-09-12T05:24:52;16.09;99.99
69823;SHT31;57119;52.516;13.508;2023-09-12T05:27:17;16.19;99.99
69823;SHT31;57119;52.516;13.508;2023-09-12T05:29:43;16.26;99.99
69823;SHT31;57119;52.516;13.508;2023-09-12T05:32:09;16.34;99.99
69823;SHT31;57119;52.516;13.508;2023-09-12T05:34:34;16.45;99.99
69823;SHT31;57119;52.516;13.508;2023-09-12T05:37:00;16.53;99.99
69823;SHT31;57119;52.516;13.508;2023-09-12T05:39:25;16.63;99.99
69823;SHT31;57119;52.516;13.508;2023-09-12T05:41:50;16.76;99.99
69823;SHT31;57119;52.516;13.508;2023-09-12T05:44:16;16.87;99.99
69823;SHT31;57119;52.516;13.508;2023-09-12T05:46:47;16.92;99.99
69823;SHT31;57119;52.516;13.508;2023-09-12T05:49:13;17.07;99.99
69823;SHT31;57119;52.516;13.508;2023-09-12T05:51:38;17.19;99.99
69823;SHT31;57119;52.516;13.508;2023-09-12T05:54:04;17.34;99.99
69823;SHT31;57119;52.516;13.508;2023-09-12T05:56:30;17.45;99.99
69823;SHT31;57119;52.516;13.508;2023-09-12T05:58:55;17.48;99.99
69823;SHT31;57119;52.516;13.508;2023-09-12T06:01:21;17.52;99.99
69823;SHT31;57119;52.516;13.508;2023-09-12T06:03:46;17.70;99.99
69823;SHT31;57119;52.516;13.508;2023-09-12T06:06:12;17.83;99.99
69823;SHT31;57119;52.516;13.508;2023-09-12T06:08:38;18.01;99.99
69823;SHT31;57119;52.516;13.508;2023-09-12T06:11:03;18.20;99.99
69823;SHT31;57119;52.516;13.508;2023-09-12T06:13:29;18.43;99.99
69823;SHT31;57119;52.516;13.508;2023-09-12T06:15:55;18.68;99.99
69823;SHT31;57119;52.516;13.508;2023-09-12T06:18:21;19.04;98.75
69823;SHT31;57119;52.516;13.508;2023-09-12T06:20:49;19.43;96.72
69823;SHT31;57119;52.516;13.508;2023-09-12T06:23:14;19.89;94.98
69823;SHT31;57119;52.516;13.508;2023-09-12T06:25:40;20.17;94.49
69823;SHT31;57119;52.516;13.508;2023-09-12T06:28:08;20.60;93.31
69823;SHT31;57119;52.516;13.508;2023-09-12T06:30:34;20.95;92.21
69823;SHT31;57119;52.516;13.508;2023-09-12T06:32:59;21.64;91.32
69823;SHT31;57119;52.516;13.508;2023-09-12T06:35:26;22.08;87.73
69823;SHT31;57119;52.516;13.508;2023-09-12T06:37:52;22.46;87.28
69823;SHT31;57119;52.516;13.508;2023-09-12T06:40:17;22.53;86.55
69823;SHT31;57119;52.516;13.508;2023-09-12T06:42:43;22.55;85.47
69823;SHT31;57119;52.516;13.508;2023-09-12T06:45:09;22.37;85.14
69823;SHT31;57119;52.516;13.508;2023-09-12T06:47:34;22.58;86.22
69823;SHT31;57119;52.516;13.508;2023-09-12T06:50:00;22.93;84.27
69823;SHT31;57119;52.516;13.508;2023-09-12T06:52:25;23.85;82.79
69823;SHT31;57119;52.516;13.508;2023-09-12T06:54:51;24.37;79.89
69823;SHT31;57119;52.516;13.508;2023-09-12T06:57:16;24.03;79.91
69823;SHT31;57119;52.516;13.508;2023-09-12T06:59:42;24.72;78.45
69823;SHT31;57119;52.516;13.508;2023-09-12T07:02:07;24.88;77.85
69823;SHT31;57119;52.516;13.508;2023-09-12T07:04:33;25.63;76.55
69823;SHT31;57119;52.516;13.508;2023-09-12T07:06:59;24.96;76.35
69823;SHT31;57119;52.516;13.508;2023-09-12T07:09:24;25.11;76.78
69823;SHT31;57119;52.516;13.508;2023-09-12T07:11:49;26.02;73.80
69823;SHT31;57119;52.516;13.508;2023-09-12T07:14:15;26.55;72.98
69823;SHT31;57119;52.516;13.508;2023-09-12T07:16:40;26.41;72.74
69823;SHT31;57119;52.516;13.508;2023-09-12T07:19:06;26.72;72.88
69823;SHT31;57119;52.516;13.508;2023-09-12T07:21:32;27.45;70.42
69823;SHT31;57119;52.516;13.508;2023-09-12T07:23:58;27.38;70.48
69823;SHT31;57119;52.516;13.508;2023-09-12T07:26:23;28.04;69.60
69823;SHT31;57119;52.516;13.508;2023-09-12T07:28:48;27.20;70.75
69823;SHT31;57119;52.516;13.508;2023-09-12T07:31:14;28.18;69.19
69823;SHT31;57119;52.516;13.508;2023-09-12T07:33:39;27.39;69.14
69823;SHT31;57119;52.516;13.508;2023-09-12T07:36:06;28.60;67.37
69823;SHT31;57119;52.516;13.508;2023-09-12T07:38:31;29.33;66.29
69823;SHT31;57119;52.516;13.508;2023-09-12T07:40:57;29.29;65.86
69823;SHT31;57119;52.516;13.508;2023-09-12T07:43:23;29.85;64.96
69823;SHT31;57119;52.516;13.508;2023-09-12T07:45:49;30.28;63.95
69823;SHT31;57119;52.516;13.508;2023-09-12T07:48:15;30.01;64.38
69823;SHT31;57119;52.516;13.508;2023-09-12T07:50:40;30.83;63.00
69823;SHT31;57119;52.516;13.508;2023-09-12T07:53:06;31.35;62.29
69823;SHT31;57119;52.516;13.508;2023-09-12T07:55:32;30.31;63.22
69823;SHT31;57119;52.516;13.508;2023-09-12T07:58:02;30.98;61.96
69823;SHT31;57119;52.516;13.508;2023-09-12T08:00:28;30.42;62.73
69823;SHT31;57119;52.516;13.508;2023-09-12T08:02:53;31.70;61.14
69823;SHT31;57119;52.516;13.508;2023-09-12T08:05:18;31.51;59.73
69823;SHT31;57119;52.516;13.508;2023-09-12T08:07:44;32.33;59.76
69823;SHT31;57119;52.516;13.508;2023-09-12T08:10:09;32.67;59.27
69823;SHT31;57119;52.516;13.508;2023-09-12T08:12:36;33.12;57.73
69823;SHT31;57119;52.516;13.508;2023-09-12T08:15:04;32.65;57.70
69823;SHT31;57119;52.516;13.508;2023-09-12T08:17:29;33.22;57.61
69823;SHT31;57119;52.516;13.508;2023-09-12T08:19:54;33.46;56.73
69823;SHT31;57119;52.516;13.508;2023-09-12T08:22:20;33.30;57.97
69823;SHT31;57119;52.516;13.508;2023-09-12T08:24:45;33.82;56.02
69823;SHT31;57119;52.516;13.508;2023-09-12T08:27:11;33.54;56.27
69823;SHT31;57119;52.516;13.508;2023-09-12T08:29:36;33.29;57.38
69823;SHT31;57119;52.516;13.508;2023-09-12T08:32:02;33.76;56.25
69823;SHT31;57119;52.516;13.508;2023-09-12T08:34:28;33.13;56.84
69823;SHT31;57119;52.516;13.508;2023-09-12T08:36:53;34.11;56.04
69823;SHT31;57119;52.516;13.508;2023-09-12T08:39:24;34.80;55.68
69823;SHT31;57119;52.516;13.508;2023-09-12T08:41:50;34.83;54.31
69823;SHT31;57119;52.516;13.508;2023-09-12T08:44:16;34.80;55.42
69823;SHT31;57119;52.516;13.508;2023-09-12T08:46:42;35.03;56.98
69823;SHT31;57119;52.516;13.508;2023-09-12T08:49:08;35.65;53.10
69823;SHT31;57119;52.516;13.508;2023-09-12T08:51:35;35.13;54.10
69823;SHT31;57119;52.516;13.508;2023-09-12T08:54:01;36.55;52.38
69823;SHT31;57119;52.516;13.508;2023-09-12T08:56:29;34.82;53.61
69823;SHT31;57119;52.516;13.508;2023-09-12T08:58:56;35.64;54.11
69823;SHT31;57119;52.516;13.508;2023-09-12T09:01:23;37.01;51.28
69823;SHT31;57119;52.516;13.508;2023-09-12T09:03:49;37.14;51.03
69823;SHT31;57119;52.516;13.508;2023-09-12T09:06:15;36.48;52.09
69823;SHT31;57119;52.516;13.508;2023-09-12T09:08:41;36.37;51.42
69823;SHT31;57119;52.516;13.508;2023-09-12T09:11:07;36.58;53.17
69823;SHT31;57119;52.516;13.508;2023-09-12T09:13:33;37.22;50.05
69823;SHT31;57119;52.516;13.508;2023-09-12T09:16:11;37.28;50.81
69823;SHT31;57119;52.516;13.508;2023-09-12T09:19:04;37.94;48.69
69823;SHT31;57119;52.516;13.508;2023-09-12T09:21:37;37.29;49.87
69823;SHT31;57119;52.516;13.508;2023-09-12T09:24:09;37.49;51.59
69823;SHT31;57119;52.516;13.508;2023-09-12T09:26:44;36.85;50.65
69823;SHT31;57119;52.516;13.508;2023-09-12T09:29:15;37.46;50.18
69823;SHT31;57119;52.516;13.508;2023-09-12T09:31:41;38.89;47.87
69823;SHT31;57119;52.516;13.508;2023-09-12T09:34:18;38.58;49.39
69823;SHT31;57119;52.516;13.508;2023-09-12T09:36:46;38.56;48.78
69823;SHT31;57119;52.516;13.508;2023-09-12T09:39:12;38.92;48.75
69823;SHT31;57119;52.516;13.508;2023-09-12T09:41:38;38.62;49.27
69823;SHT31;57119;52.516;13.508;2023-09-12T09:44:05;38.39;49.82
69823;SHT31;57119;52.516;13.508;2023-09-12T09:46:32;38.38;49.38
69823;SHT31;57119;52.516;13.508;2023-09-12T09:48:58;38.07;50.35
69823;SHT31;57119;52.516;13.508;2023-09-12T09:51:25;37.90;51.02
69823;SHT31;57119;52.516;13.508;2023-09-12T09:53:51;36.90;52.40
69823;SHT31;57119;52.516;13.508;2023-09-12T09:56:17;36.33;53.56
69823;SHT31;57119;52.516;13.508;2023-09-12T09:58:54;37.15;53.10
69823;SHT31;57119;52.516;13.508;2023-09-12T10:01:21;36.57;54.65
69823;SHT31;57119;52.516;13.508;2023-09-12T10:03:48;38.00;52.54
69823;SHT31;57119;52.516;13.508;2023-09-12T10:06:15;38.65;51.77
69823;SHT31;57119;52.516;13.508;2023-09-12T10:08:49;37.55;52.70
69823;SHT31;57119;52.516;13.508;2023-09-12T10:11:17;38.65;51.85
69823;SHT31;57119;52.516;13.508;2023-09-12T10:14:04;39.40;51.06
69823;SHT31;57119;52.516;13.508;2023-09-12T10:16:31;38.55;51.60
69823;SHT31;57119;52.516;13.508;2023-09-12T10:19:08;37.91;52.48
69823;SHT31;57119;52.516;13.508;2023-09-12T10:21:36;37.73;53.46
69823;SHT31;57119;52.516;13.508;2023-09-12T10:24:03;38.79;51.94
69823;SHT31;57119;52.516;13.508;2023-09-12T10:26:30;38.99;52.19
69823;SHT31;57119;52.516;13.508;2023-09-12T10:28:57;39.00;51.99
69823;SHT31;57119;52.516;13.508;2023-09-12T10:31:24;38.79;52.84
69823;SHT31;57119;52.516;13.508;2023-09-12T10:33:51;39.78;51.16
69823;SHT31;57119;52.516;13.508;2023-09-12T10:36:18;38.20;51.18
69823;SHT31;57119;52.516;13.508;2023-09-12T10:38:45;39.00;51.11
69823;SHT31;57119;52.516;13.508;2023-09-12T10:41:12;39.41;49.92
69823;SHT31;57119;52.516;13.508;2023-09-12T10:43:40;38.45;52.48
69823;SHT31;57119;52.516;13.508;2023-09-12T10:46:07;39.00;51.00
69823;SHT31;57119;52.516;13.508;2023-09-12T10:48:35;40.57;48.82
69823;SHT31;57119;52.516;13.508;2023-09-12T10:51:01;40.60;49.31
69823;SHT31;57119;52.516;13.508;2023-09-12T10:53:28;41.25;49.36
69823;SHT31;57119;52.516;13.508;2023-09-12T11:01:29;39.40;50.52
69823;SHT31;57119;52.516;13.508;2023-09-12T11:03:55;40.23;49.74
69823;SHT31;57119;52.516;13.508;2023-09-12T11:06:22;41.22;50.10
69823;SHT31;57119;52.516;13.508;2023-09-12T11:09:26;40.64;49.75
69823;SHT31;57119;52.516;13.508;2023-09-12T11:12:04;40.32;49.57
69823;SHT31;57119;52.516;13.508;2023-09-12T11:14:31;40.43;49.47
69823;SHT31;57119;52.516;13.508;2023-09-12T11:19:43;41.15;49.01
69823;SHT31;57119;52.516;13.508;2023-09-12T11:24:46;42.93;46.80
69823;SHT31;57119;52.516;13.508;2023-09-12T11:27:12;42.59;46.82
69823;SHT31;57119;52.516;13.508;2023-09-12T11:29:39;42.01;47.01
69823;SHT31;57119;52.516;13.508;2023-09-12T11:32:06;42.95;45.18
69823;SHT31;57119;52.516;13.508;2023-09-12T11:34:41;41.32;48.49
69823;SHT31;57119;52.516;13.508;2023-09-12T11:37:07;42.38;47.24
69823;SHT31;57119;52.516;13.508;2023-09-12T11:39:34;42.98;46.67
69823;SHT31;57119;52.516;13.508;2023-09-12T11:42:01;43.10;45.23
69823;SHT31;57119;52.516;13.508;2023-09-12T11:44:27;40.80;48.45
69823;SHT31;57119;52.516;13.508;2023-09-12T11:46:55;42.06;47.27
69823;SHT31;57119;52.516;13.508;2023-09-12T11:49:23;42.38;47.05
69823;SHT31;57119;52.516;13.508;2023-09-12T11:51:53;41.32;48.06
69823;SHT31;57119;52.516;13.508;2023-09-12T11:54:20;39.84;49.42
69823;SHT31;57119;52.516;13.508;2023-09-12T11:56:49;41.56;48.00
69823;SHT31;57119;52.516;13.508;2023-09-12T11:59:15;42.66;46.09
69823;SHT31;57119;52.516;13.508;2023-09-12T12:01:45;41.32;47.99
69823;SHT31;57119;52.516;13.508;2023-09-12T12:04:11;42.38;47.28
69823;SHT31;57119;52.516;13.508;2023-09-12T12:06:36;42.65;46.81
69823;SHT31;57119;52.516;13.508;2023-09-12T12:09:02;41.55;47.67
69823;SHT31;57119;52.516;13.508;2023-09-12T12:11:29;42.99;47.57
69823;SHT31;57119;52.516;13.508;2023-09-12T12:13:55;42.17;47.56
69823;SHT31;57119;52.516;13.508;2023-09-12T12:16:20;43.02;45.52
69823;SHT31;57119;52.516;13.508;2023-09-12T12:18:46;43.50;46.07
69823;SHT31;57119;52.516;13.508;2023-09-12T12:21:12;43.19;46.28
69823;SHT31;57119;52.516;13.508;2023-09-12T12:23:37;40.15;48.46
69823;SHT31;57119;52.516;13.508;2023-09-12T12:26:05;40.90;48.45
69823;SHT31;57119;52.516;13.508;2023-09-12T12:28:31;41.27;46.86
69823;SHT31;57119;52.516;13.508;2023-09-12T12:30:57;43.12;46.81
69823;SHT31;57119;52.516;13.508;2023-09-12T12:33:22;42.19;46.58
69823;SHT31;57119;52.516;13.508;2023-09-12T12:35:47;42.48;47.48
69823;SHT31;57119;52.516;13.508;2023-09-12T12:38:15;42.89;46.54
69823;SHT31;57119;52.516;13.508;2023-09-12T12:40:40;42.87;46.47
69823;SHT31;57119;52.516;13.508;2023-09-12T12:43:16;42.16;47.85
69823;SHT31;57119;52.516;13.508;2023-09-12T12:45:52;43.23;45.05
69823;SHT31;57119;52.516;13.508;2023-09-12T12:48:32;42.64;46.37
69823;SHT31;57119;52.516;13.508;2023-09-12T12:50:58;42.25;47.69
69823;SHT31;57119;52.516;13.508;2023-09-12T12:53:46;43.12;46.91
69823;SHT31;57119;52.516;13.508;2023-09-12T12:56:17;42.44;47.38
69823;SHT31;57119;52.516;13.508;2023-09-12T12:59:02;42.79;46.55
69823;SHT31;57119;52.516;13.508;2023-09-12T13:01:30;43.22;44.88
69823;SHT31;57119;52.516;13.508;2023-09-12T13:03:55;42.10;46.62
69823;SHT31;57119;52.516;13.508;2023-09-12T13:06:24;42.21;46.54
69823;SHT31;57119;52.516;13.508;2023-09-12T13:08:51;42.50;46.44
69823;SHT31;57119;52.516;13.508;2023-09-12T13:11:16;42.82;45.78
69823;SHT31;57119;52.516;13.508;2023-09-12T13:13:42;43.49;46.05
69823;SHT31;57119;52.516;13.508;2023-09-12T13:16:10;43.50;45.39
69823;SHT31;57119;52.516;13.508;2023-09-12T13:18:37;42.78;46.69
69823;SHT31;57119;52.516;13.508;2023-09-12T13:21:03;43.56;45.44
69823;SHT31;57119;52.516;13.508;2023-09-12T13:23:29;41.98;45.98
69823;SHT31;57119;52.516;13.508;2023-09-12T13:25:55;43.54;45.17
69823;SHT31;57119;52.516;13.508;2023-09-12T13:28:20;42.00;45.18
69823;SHT31;57119;52.516;13.508;2023-09-12T13:30:48;41.02;47.04
69823;SHT31;57119;52.516;13.508;2023-09-12T13:33:14;42.25;45.53
69823;SHT31;57119;52.516;13.508;2023-09-12T13:35:42;43.30;45.64
69823;SHT31;57119;52.516;13.508;2023-09-12T13:38:07;42.72;44.93
69823;SHT31;57119;52.516;13.508;2023-09-12T13:40:40;41.14;46.56
69823;SHT31;57119;52.516;13.508;2023-09-12T13:43:08;42.41;45.42
69823;SHT31;57119;52.516;13.508;2023-09-12T13:45:34;43.14;45.09
69823;SHT31;57119;52.516;13.508;2023-09-12T13:47:59;42.59;45.32
69823;SHT31;57119;52.516;13.508;2023-09-12T13:50:26;42.76;45.23
69823;SHT31;57119;52.516;13.508;2023-09-12T13:52:54;41.38;45.77
69823;SHT31;57119;52.516;13.508;2023-09-12T13:55:21;42.82;45.38
69823;SHT31;57119;52.516;13.508;2023-09-12T13:57:46;44.28;44.33
69823;SHT31;57119;52.516;13.508;2023-09-12T14:00:12;44.21;43.67
69823;SHT31;57119;52.516;13.508;2023-09-12T14:02:37;42.95;44.21
69823;SHT31;57119;52.516;13.508;2023-09-12T14:05:03;40.76;45.24
69823;SHT31;57119;52.516;13.508;2023-09-12T14:07:28;40.13;46.60
69823;SHT31;57119;52.516;13.508;2023-09-12T14:09:54;41.89;46.13
69823;SHT31;57119;52.516;13.508;2023-09-12T14:12:24;42.40;44.19
69823;SHT31;57119;52.516;13.508;2023-09-12T14:14:51;40.33;46.68
69823;SHT31;57119;52.516;13.508;2023-09-12T14:17:20;41.62;46.32
69823;SHT31;57119;52.516;13.508;2023-09-12T14:19:45;40.54;46.44
69823;SHT31;57119;52.516;13.508;2023-09-12T14:22:11;37.36;50.08
69823;SHT31;57119;52.516;13.508;2023-09-12T14:24:36;38.56;48.34
69823;SHT31;57119;52.516;13.508;2023-09-12T14:27:01;39.54;47.19
69823;SHT31;57119;52.516;13.508;2023-09-12T14:29:27;39.82;47.57
69823;SHT31;57119;52.516;13.508;2023-09-12T14:31:55;40.80;45.69
69823;SHT31;57119;52.516;13.508;2023-09-12T14:34:28;37.77;49.21
69823;SHT31;57119;52.516;13.508;2023-09-12T14:36:54;38.07;49.48
69823;SHT31;57119;52.516;13.508;2023-09-12T14:39:21;38.41;49.48
69823;SHT31;57119;52.516;13.508;2023-09-12T14:41:47;39.11;48.42
69823;SHT31;57119;52.516;13.508;2023-09-12T14:44:19;38.82;48.17
69823;SHT31;57119;52.516;13.508;2023-09-12T14:46:44;38.55;49.02
69823;SHT31;57119;52.516;13.508;2023-09-12T14:49:10;38.66;48.59
69823;SHT31;57119;52.516;13.508;2023-09-12T14:51:36;38.32;49.20
69823;SHT31;57119;52.516;13.508;2023-09-12T14:54:02;38.18;50.10
69823;SHT31;57119;52.516;13.508;2023-09-12T14:56:28;36.55;52.14
69823;SHT31;57119;52.516;13.508;2023-09-12T14:58:53;35.41;54.15
69823;SHT31;57119;52.516;13.508;2023-09-12T15:01:19;36.47;52.59
69823;SHT31;57119;52.516;13.508;2023-09-12T15:03:44;37.49;51.36
69823;SHT31;57119;52.516;13.508;2023-09-12T15:06:09;35.93;54.92
69823;SHT31;57119;52.516;13.508;2023-09-12T15:08:35;34.42;57.90
69823;SHT31;57119;52.516;13.508;2023-09-12T15:11:02;34.41;58.11
69823;SHT31;57119;52.516;13.508;2023-09-12T15:13:28;34.28;57.96
69823;SHT31;57119;52.516;13.508;2023-09-12T15:15:53;34.76;57.58
69823;SHT31;57119;52.516;13.508;2023-09-12T15:18:18;33.80;59.75
69823;SHT31;57119;52.516;13.508;2023-09-12T15:20:44;34.44;58.67
69823;SHT31;57119;52.516;13.508;2023-09-12T15:23:09;33.94;59.39
69823;SHT31;57119;52.516;13.508;2023-09-12T15:25:34;32.57;61.82
69823;SHT31;57119;52.516;13.508;2023-09-12T15:28:01;32.65;62.12